Aérodrome :
LOGIN :

S'inscrire | Disclaimer

   EN    FR    IT 

 










Légende :    VFR   VFR Marginal   IFR   IFR Intensif   IFR Très Intensif
Visi : 
Plafond : 
>= 8 km
>= 3000ft
5 à 8 km
1000 à 3000 ft
1500m à 5 km
500 à 1000 ft
800 à 1500m
200 à 500 ft
< 800m
< 200 ft
Symboles :   Orages  Brouillard  Fortes neiges  Fortes précipitations  Vent > 20 kt
SIGMETs :   Divers  Orages  Givrage  Turbulence  Onde Orograph.  Cendres Volcan.







- Altitude de l'aérodrome : 427 ft
- Code IATA : CIA


LIRA - Roma Ciampino

DERNIER METAR :
  • 141450Z 05006KT 9999 FEW070 22/19 Q1013

METARs EXPIRÉS :
  • 141420Z 05005KT 010V080 9999 FEW050 SCT070 21/18 Q1013 RETS
  • 141350Z 14004KT 9999 -TSRA FEW025 BKN045CB 21/18 Q1013
  • 141320Z 22005KT 190V250 9999 TS FEW025 BKN040CB 21/18 Q1013
  • 141250Z 12005KT 050V170 9999 TS FEW015 BKN030CB BKN050 21/18 Q1013
  • 141220Z 06009KT 030V090 9999 FEW010 BKN025CB BKN050 20/18 Q1013 RETSRA

TAF TAF LIRA
Valide du 14 à 12h jusqu'au 15 à 12h UTC


141100Z 1412/1512 17012KT 9999 SCT030
TEMPO 1412/1503 4000 TSRA
BECMG 1416/1418 VRB05KT
TEMPO 1508/1512 TSRA
Pas de NOTAMs connus pour ce terrain.
1 SIGMET publié pour la FIR Roma (LIRR) :
 
Orages noyés dans la masse
LIRR SIGMET 9 VALID 141407/141530 LIIB
LIRR ROMA FIR EMBD TS FCST WI N4215 E01230 - N4137 E01149 - N4122 E00946 - N4116 E00822 - N4057 E00757 - N3858 E00801 - N3845 E01508 - N3907 E01618 - N4110 E01510 - N4125 E01421 - N4230 E01325 - N4222 E01301 - N4215 E01230 TOP ABV FL330 MOV SE NC=



MET'MAP, la Météo Aéronautique d'un coup d'oeil ! - Copyright ORBIFLY Décembre 2007 - Disclaimer

ORBIFLY MET'MAP TEAM :

Programmation & Développement : Alexandra Zaïnal
Conception & Développement : Baudouin d'Aumeries
Co-Programmation & Développement : Marc-Olivier Méhu
Soutien technique & logistique : Manuel Goepfert

Contact : metmap@orbifly.com




SOURCES & CREDITS :

   NOAA